Time;durP1;ratioP1;P1;durP2;ratioP2;P2;SDS_P1;SDS_P2;PMS_P1;PMS_P2;Temp;Humidity;BMP_temperature;BMP_pressure;BME280_temperature;BME280_humidity;BME280_pressure;Samples;Min_cycle;Max_cycle;Signal;HPM_P1;HPM_P2
2022/08/30 00:01:05;;;;;;;9.43;4.93;;;18.30;1.00;;;;;;4971886;28;20259;-72
2022/08/30 00:03:45;;;;;;;8.27;5.30;;;18.30;1.00;;;;;;4971435;28;20184;-72
2022/08/30 00:06:12;;;;;;;8.40;5.07;;;18.40;1.00;;;;;;4971693;28;20528;-72
2022/08/30 00:08:39;;;;;;;9.30;5.30;;;18.40;1.00;;;;;;4971806;28;20226;-72
2022/08/30 00:11:08;;;;;;;11.38;5.90;;;18.40;1.00;;;;;;4971808;28;20214;-72
2022/08/30 00:13:38;;;;;;;11.10;6.10;;;18.40;1.00;;;;;;4971365;28;20262;-71
2022/08/30 00:16:05;;;;;;;9.93;6.13;;;18.30;1.00;;;;;;4971511;28;20179;-70
2022/08/30 00:18:32;;;;;;;9.07;6.13;;;18.30;1.00;;;;;;4970029;28;20622;-70
2022/08/30 00:20:58;;;;;;;12.33;6.27;;;18.30;1.00;;;;;;4971387;28;20237;-70
2022/08/30 00:23:24;;;;;;;9.50;6.20;;;18.40;1.00;;;;;;4971639;28;20263;-70
2022/08/30 00:25:50;;;;;;;9.63;6.47;;;18.30;1.00;;;;;;4971442;28;20194;-72
2022/08/30 00:28:16;;;;;;;9.33;5.90;;;18.30;1.00;;;;;;4970328;28;20748;-70
2022/08/30 00:30:42;;;;;;;12.15;6.47;;;18.40;1.00;;;;;;4971457;28;20218;-70
2022/08/30 00:33:09;;;;;;;10.07;6.10;;;18.30;1.00;;;;;;4970919;28;20192;-70
2022/08/30 00:35:35;;;;;;;11.87;6.67;;;18.30;1.00;;;;;;4972930;28;20184;-71
2022/08/30 00:38:01;;;;;;;12.13;6.70;;;18.20;2.70;;;;;;4975034;28;20198;-71
2022/08/30 00:40:27;;;;;;;12.87;6.10;;;18.30;5.20;;;;;;4974930;28;20687;-71
2022/08/30 00:42:55;;;;;;;10.57;6.83;;;18.20;2.60;;;;;;4974837;28;20249;-71
2022/08/30 00:45:24;;;;;;;14.70;6.40;;;18.20;6.50;;;;;;4974709;28;20172;-70
2022/08/30 00:47:51;;;;;;;14.07;7.07;;;18.20;10.60;;;;;;4974191;28;20225;-70
2022/08/30 00:50:19;;;;;;;12.23;7.77;;;18.20;11.20;;;;;;4974648;28;20168;-71
2022/08/30 00:52:49;;;;;;;17.93;8.03;;;18.20;10.40;;;;;;4974821;28;20191;-70
2022/08/30 00:55:16;;;;;;;14.93;7.70;;;18.10;14.70;;;;;;4974423;28;20215;-70
2022/08/30 00:57:44;;;;;;;26.03;7.67;;;18.10;14.80;;;;;;4974582;28;20164;-71
2022/08/30 01:00:12;;;;;;;14.97;7.50;;;18.20;14.70;;;;;;4974409;28;20187;-70
2022/08/30 01:02:38;;;;;;;16.87;7.60;;;18.10;14.60;;;;;;4973954;28;20185;-70
2022/08/30 01:05:07;;;;;;;11.47;7.07;;;18.10;16.30;;;;;;4974579;28;20607;-71
2022/08/30 01:07:33;;;;;;;15.10;7.30;;;18.20;16.00;;;;;;4974432;28;20171;-72
2022/08/30 01:10:00;;;;;;;11.30;7.03;;;18.20;13.10;;;;;;4974348;28;20582;-71
2022/08/30 01:12:27;;;;;;;14.13;7.10;;;18.10;16.60;;;;;;4974411;28;20229;-70
2022/08/30 01:14:52;;;;;;;8.60;7.20;;;18.10;18.40;;;;;;4973850;28;20293;-71
2022/08/30 01:17:19;;;;;;;10.33;7.20;;;18.10;22.70;;;;;;4973665;28;20655;-71
2022/08/30 01:20:04;;;;;;;9.23;7.07;;;18.10;22.20;;;;;;4974310;28;20208;-72
2022/08/30 01:22:45;;;;;;;9.67;6.90;;;18.10;21.00;;;;;;4973053;28;20188;-72
2022/08/30 01:25:13;;;;;;;14.23;6.70;;;18.00;19.30;;;;;;4974233;28;20168;-72
2022/08/30 01:27:46;;;;;;;9.33;6.83;;;18.00;24.20;;;;;;4973975;28;20233;-71
2022/08/30 01:30:12;;;;;;;13.67;6.87;;;17.90;22.90;;;;;;4974206;28;20628;-72
2022/08/30 01:32:41;;;;;;;9.07;6.47;;;17.90;28.50;;;;;;4974048;28;20180;-70
2022/08/30 01:35:08;;;;;;;12.50;7.00;;;17.80;31.90;;;;;;4973915;28;20212;-71
2022/08/30 01:37:35;;;;;;;9.10;7.23;;;17.80;33.00;;;;;;4973969;28;20271;-71
2022/08/30 01:40:01;;;;;;;14.80;7.80;;;17.80;34.20;;;;;;4973711;28;20187;-71
2022/08/30 01:42:27;;;;;;;11.03;7.73;;;17.80;34.40;;;;;;4973849;28;20168;-71
2022/08/30 01:44:53;;;;;;;11.23;7.30;;;17.80;37.90;;;;;;4973650;28;20207;-71
2022/08/30 01:47:18;;;;;;;11.63;8.07;;;17.80;39.00;;;;;;4972211;28;20693;-71
2022/08/30 01:49:45;;;;;;;12.73;7.43;;;17.80;38.20;;;;;;4974005;28;20187;-71
2022/08/30 01:52:12;;;;;;;12.77;7.30;;;17.70;43.10;;;;;;4973630;28;20270;-71
2022/08/30 01:54:39;;;;;;;13.17;7.33;;;17.70;43.50;;;;;;4973557;28;20699;-71
2022/08/30 01:57:08;;;;;;;12.37;7.20;;;17.60;48.70;;;;;;4973635;28;20184;-71
2022/08/30 01:59:35;;;;;;;16.20;7.87;;;17.70;45.70;;;;;;4973217;28;20237;-71
2022/08/30 02:02:01;;;;;;;11.17;7.13;;;17.60;45.80;;;;;;4973785;28;20310;-71
2022/08/30 02:04:27;;;;;;;11.80;7.53;;;17.60;50.10;;;;;;4973521;28;20628;-71
2022/08/30 02:06:52;;;;;;;12.93;7.93;;;17.60;51.80;;;;;;4973590;28;20337;-71
2022/08/30 02:09:18;;;;;;;13.53;7.57;;;17.50;53.90;;;;;;4973215;28;20262;-71
2022/08/30 02:11:44;;;;;;;11.17;7.97;;;17.50;55.30;;;;;;4973375;28;20686;-70
2022/08/30 02:14:10;;;;;;;12.23;7.57;;;17.50;56.80;;;;;;4972772;28;20243;-71
2022/08/30 02:16:36;;;;;;;12.17;7.87;;;17.50;58.10;;;;;;4973542;28;20196;-71
2022/08/30 02:19:02;;;;;;;12.30;8.07;;;17.50;59.80;;;;;;4971947;28;20697;-71
2022/08/30 02:21:28;;;;;;;10.50;8.17;;;17.40;61.90;;;;;;4972210;28;20297;-71
2022/08/30 02:23:54;;;;;;;13.63;7.80;;;17.40;64.30;;;;;;4973055;28;20214;-70
2022/08/30 02:26:21;;;;;;;14.10;7.63;;;17.40;67.90;;;;;;4973242;28;20654;-70
2022/08/30 02:28:47;;;;;;;14.77;7.90;;;17.30;72.70;;;;;;4972785;28;20176;-70
2022/08/30 02:31:13;;;;;;;12.30;7.97;;;17.30;75.20;;;;;;4973076;28;20172;-70
2022/08/30 02:33:39;;;;;;;13.33;8.13;;;17.20;81.20;;;;;;4973068;28;20216;-70
2022/08/30 02:36:06;;;;;;;10.70;8.07;;;17.10;88.10;;;;;;4973059;28;20595;-70
2022/08/30 02:38:32;;;;;;;10.93;8.50;;;17.10;91.70;;;;;;4972776;28;20206;-70
2022/08/30 02:40:58;;;;;;;12.57;8.33;;;17.00;92.50;;;;;;4972746;28;20184;-70
2022/08/30 02:43:24;;;;;;;13.43;8.50;;;17.00;93.30;;;;;;4972633;28;20241;-70
2022/08/30 02:45:49;;;;;;;13.80;8.57;;;17.00;94.20;;;;;;4973023;28;20334;-70
2022/08/30 02:48:15;;;;;;;17.33;9.30;;;16.90;95.70;;;;;;4972749;28;20191;-70
2022/08/30 02:50:43;;;;;;;14.30;8.50;;;16.90;96.40;;;;;;4972763;28;20552;-71
2022/08/30 02:53:09;;;;;;;13.30;8.87;;;17.00;97.00;;;;;;4972780;28;20203;-71
2022/08/30 02:55:35;;;;;;;11.83;8.17;;;16.90;96.70;;;;;;4972663;28;20588;-71
2022/08/30 02:58:01;;;;;;;15.93;9.10;;;16.90;97.90;;;;;;4971363;28;20225;-71
2022/08/30 03:00:27;;;;;;;15.33;8.87;;;16.90;98.30;;;;;;4972780;28;20518;-71
2022/08/30 03:02:52;;;;;;;14.87;8.87;;;16.90;98.60;;;;;;4972720;28;20183;-71
2022/08/30 03:05:18;;;;;;;13.33;9.00;;;16.80;99.90;;;;;;4972573;28;20173;-71
2022/08/30 03:07:46;;;;;;;14.03;9.30;;;16.80;99.90;;;;;;4972383;28;20549;-71
2022/08/30 03:10:13;;;;;;;15.43;9.20;;;16.80;99.90;;;;;;4972567;28;20263;-71
2022/08/30 03:12:40;;;;;;;17.97;10.10;;;16.70;99.90;;;;;;4972095;28;20262;-71
2022/08/30 03:15:07;;;;;;;21.97;9.63;;;16.80;99.90;;;;;;4970996;28;20223;-71
2022/08/30 03:17:32;;;;;;;16.33;9.77;;;16.70;99.90;;;;;;4972359;28;20204;-71
2022/08/30 03:20:00;;;;;;;18.23;9.60;;;16.70;99.90;;;;;;4971973;28;20639;-72
2022/08/30 03:22:25;;;;;;;15.60;9.27;;;16.70;99.90;;;;;;4972133;28;20190;-70
2022/08/30 03:24:51;;;;;;;17.23;9.57;;;16.80;99.90;;;;;;4972263;28;20171;-70
2022/08/30 03:27:17;;;;;;;12.80;9.53;;;16.80;99.90;;;;;;4971849;28;20705;-70
2022/08/30 03:29:42;;;;;;;15.53;9.60;;;16.80;99.90;;;;;;4972041;28;20277;-71
2022/08/30 03:32:08;;;;;;;16.53;9.07;;;16.80;99.90;;;;;;4972098;28;20179;-70
2022/08/30 03:34:34;;;;;;;14.13;9.13;;;16.80;99.90;;;;;;4971711;28;20235;-70
2022/08/30 03:37:00;;;;;;;16.07;8.73;;;16.80;99.90;;;;;;4972149;28;20196;-70
2022/08/30 03:39:26;;;;;;;11.00;8.17;;;16.80;99.90;;;;;;4971723;28;20628;-70
2022/08/30 03:41:52;;;;;;;13.83;9.53;;;16.90;99.90;;;;;;4971648;28;20172;-70
2022/08/30 03:44:19;;;;;;;18.27;8.87;;;16.90;99.90;;;;;;4971905;28;20172;-70
2022/08/30 03:46:45;;;;;;;13.17;8.97;;;16.90;99.90;;;;;;4971399;28;20176;-70
2022/08/30 03:49:11;;;;;;;15.97;9.23;;;16.90;99.90;;;;;;4971929;28;20184;-70
2022/08/30 03:51:37;;;;;;;17.17;8.97;;;16.70;99.90;;;;;;4971680;28;20187;-70
2022/08/30 03:54:03;;;;;;;16.50;9.60;;;16.80;99.90;;;;;;4971661;28;20211;-70
2022/08/30 03:56:28;;;;;;;16.50;9.97;;;16.80;99.90;;;;;;4970866;28;20180;-70
2022/08/30 03:58:54;;;;;;;18.00;9.20;;;16.80;99.90;;;;;;4971323;28;20267;-70
2022/08/30 04:01:19;;;;;;;18.93;8.97;;;16.80;99.90;;;;;;4971653;28;20204;-70
2022/08/30 04:03:45;;;;;;;20.83;9.60;;;16.80;99.90;;;;;;4971083;28;20635;-69
2022/08/30 04:06:11;;;;;;;16.03;9.47;;;16.70;99.90;;;;;;4971264;28;20271;-71
2022/08/30 04:08:37;;;;;;;14.37;9.30;;;16.80;99.90;;;;;;4971041;28;20262;-71
2022/08/30 04:11:03;;;;;;;19.33;9.47;;;16.70;99.90;;;;;;4970992;28;20245;-70
2022/08/30 04:13:29;;;;;;;18.77;9.07;;;16.70;99.90;;;;;;4970910;28;20239;-71
2022/08/30 04:15:54;;;;;;;17.07;9.90;;;16.70;99.90;;;;;;4970971;28;20264;-70
2022/08/30 04:18:21;;;;;;;21.27;9.23;;;16.70;99.90;;;;;;4969822;28;20317;-71
2022/08/30 04:20:46;;;;;;;19.10;9.43;;;16.70;99.90;;;;;;4971403;28;20230;-71
2022/08/30 04:23:13;;;;;;;19.90;9.87;;;16.60;99.90;;;;;;4971486;28;20655;-71
2022/08/30 04:25:40;;;;;;;20.33;9.50;;;16.60;99.90;;;;;;4970486;28;20180;-71
2022/08/30 04:28:06;;;;;;;17.00;9.20;;;16.60;99.90;;;;;;4970903;28;20225;-70
2022/08/30 04:30:32;;;;;;;22.87;10.23;;;16.60;99.90;;;;;;4970771;28;20209;-70
2022/08/30 04:32:58;;;;;;;22.20;9.83;;;16.60;99.90;;;;;;4969600;28;20267;-71
2022/08/30 04:35:24;;;;;;;19.13;9.97;;;16.60;99.90;;;;;;4971036;28;20215;-71
2022/08/30 04:37:50;;;;;;;19.50;9.73;;;16.60;99.90;;;;;;4971207;28;20187;-71
2022/08/30 04:40:16;;;;;;;16.80;9.17;;;16.50;99.90;;;;;;4970569;28;20172;-71
2022/08/30 04:42:45;;;;;;;24.67;10.47;;;16.50;99.90;;;;;;4970852;28;20199;-71
2022/08/30 04:45:13;;;;;;;26.47;9.83;;;16.50;99.90;;;;;;4970799;28;20220;-70
2022/08/30 04:47:40;;;;;;;18.03;9.90;;;16.40;99.90;;;;;;4970505;28;20190;-71
2022/08/30 04:50:07;;;;;;;21.00;10.77;;;16.40;99.90;;;;;;4970601;28;20172;-71
2022/08/30 04:52:33;;;;;;;12.57;9.83;;;16.40;99.90;;;;;;4969955;28;20179;-71
2022/08/30 04:54:59;;;;;;;19.60;10.33;;;16.50;99.90;;;;;;4970016;28;20669;-71
2022/08/30 04:57:26;;;;;;;17.90;10.37;;;16.50;99.90;;;;;;4971074;28;20180;-71
2022/08/30 04:59:52;;;;;;;20.17;9.80;;;16.50;99.90;;;;;;4970578;28;20184;-71
2022/08/30 05:02:18;;;;;;;19.67;10.77;;;16.50;99.90;;;;;;4970309;28;20195;-71
2022/08/30 05:07:30;;;;;;;20.53;10.00;;;16.50;99.90;;;;;;4970094;28;20230;-71
2022/08/30 05:09:56;;;;;;;21.00;10.53;;;16.50;99.90;;;;;;4969252;28;20199;-71
2022/08/30 05:12:22;;;;;;;21.57;10.07;;;16.50;99.90;;;;;;4970521;28;20172;-71
2022/08/30 05:14:47;;;;;;;19.83;10.27;;;16.50;99.90;;;;;;4968469;28;20645;-72
2022/08/30 05:17:13;;;;;;;22.60;10.50;;;16.50;99.90;;;;;;4969643;28;20242;-71
2022/08/30 05:19:38;;;;;;;14.80;10.33;;;16.50;99.90;;;;;;4970108;28;20226;-70
2022/08/30 05:22:04;;;;;;;20.27;10.63;;;16.60;99.90;;;;;;4971632;28;20225;-70
2022/08/30 05:24:30;;;;;;;18.00;9.53;;;16.60;99.90;;;;;;4971366;28;20180;-71
2022/08/30 05:26:57;;;;;;;20.77;10.30;;;16.70;99.90;;;;;;4973030;28;20619;-70
2022/08/30 05:29:23;;;;;;;15.97;10.23;;;16.90;99.90;;;;;;4972066;28;20176;-72
2022/08/30 05:31:49;;;;;;;13.17;10.13;;;17.10;99.90;;;;;;4972419;28;20187;-70
2022/08/30 05:34:14;;;;;;;14.80;9.70;;;17.20;99.90;;;;;;4972069;28;20234;-71
2022/08/30 05:36:40;;;;;;;13.33;9.43;;;17.40;97.20;;;;;;4971685;28;20164;-70
2022/08/30 05:39:07;;;;;;;19.93;10.03;;;17.90;90.70;;;;;;4971236;28;20168;-71
2022/08/30 05:41:34;;;;;;;12.10;8.73;;;18.30;60.10;;;;;;4971076;28;20199;-71
2022/08/30 05:44:01;;;;;;;21.60;9.20;;;18.50;37.50;;;;;;4971735;28;20191;-71
2022/08/30 05:46:31;;;;;;;15.57;8.70;;;18.90;19.10;;;;;;4971349;28;20182;-72
2022/08/30 05:48:58;;;;;;;15.70;8.63;;;19.20;1.90;;;;;;4970635;28;20628;-72
2022/08/30 05:51:25;;;;;;;21.60;9.57;;;19.20;1.00;;;;;;4970216;28;20568;-72
2022/08/30 05:53:52;;;;;;;21.23;8.47;;;18.70;17.50;;;;;;4969984;28;20246;-72
2022/08/30 05:56:24;;;;;;;20.10;9.53;;;18.70;19.10;;;;;;4969344;28;20184;-71
2022/08/30 05:58:50;;;;;;;19.67;8.63;;;18.80;25.20;;;;;;4970685;28;20191;-71
2022/08/30 06:01:27;;;;;;;16.55;8.70;;;18.90;5.30;;;;;;4968158;28;20187;-72
2022/08/30 06:03:55;;;;;;;12.27;8.73;;;18.80;11.50;;;;;;4971098;28;20168;-70
2022/08/30 06:06:22;;;;;;;11.18;8.65;;;19.00;9.10;;;;;;4970218;28;20168;-71
2022/08/30 06:08:48;;;;;;;15.20;8.63;;;19.00;1.00;;;;;;4971087;28;20190;-71
2022/08/30 06:11:18;;;;;;;11.10;8.80;;;18.70;6.10;;;;;;4971310;28;20184;-71
2022/08/30 06:13:44;;;;;;;13.30;8.83;;;18.40;25.90;;;;;;4970456;28;20265;-70
2022/08/30 06:16:14;;;;;;;16.60;8.77;;;18.20;34.00;;;;;;4969225;28;20321;-70
2022/08/30 06:18:40;;;;;;;14.80;8.87;;;18.10;43.00;;;;;;4971495;28;20175;-71
2022/08/30 06:21:06;;;;;;;15.60;9.00;;;18.20;39.00;;;;;;4970711;28;20179;-71
2022/08/30 06:23:32;;;;;;;13.90;8.93;;;18.20;41.50;;;;;;4970011;28;20267;-71
2022/08/30 06:26:05;;;;;;;19.90;10.37;;;18.30;34.20;;;;;;4970572;28;20169;-71
2022/08/30 06:28:31;;;;;;;13.63;9.83;;;18.30;26.50;;;;;;4971172;28;20173;-72
2022/08/30 06:30:57;;;;;;;16.67;9.30;;;18.40;28.40;;;;;;4970145;28;20214;-71
2022/08/30 06:33:23;;;;;;;12.97;9.20;;;18.40;18.30;;;;;;4970687;28;20199;-71
2022/08/30 06:35:48;;;;;;;15.47;10.37;;;18.40;23.00;;;;;;4969796;28;20632;-71
2022/08/30 06:38:14;;;;;;;11.33;9.40;;;18.40;19.50;;;;;;4971074;28;20203;-71
2022/08/30 06:40:39;;;;;;;12.43;9.47;;;18.40;15.60;;;;;;4970445;28;20639;-71
2022/08/30 06:43:05;;;;;;;11.80;9.97;;;18.40;22.90;;;;;;4970270;28;20234;-72
2022/08/30 06:45:33;;;;;;;10.27;9.00;;;18.60;17.20;;;;;;4970801;28;20342;-71
2022/08/30 06:47:59;;;;;;;15.70;9.97;;;18.40;13.30;;;;;;4970522;28;20180;-71
2022/08/30 06:50:24;;;;;;;14.77;10.23;;;18.50;23.70;;;;;;4970350;28;20175;-71
2022/08/30 06:52:50;;;;;;;13.07;9.98;;;18.50;12.90;;;;;;4970086;28;20204;-70
2022/08/30 06:55:17;;;;;;;12.30;9.73;;;18.50;14.90;;;;;;4970202;28;20694;-71
2022/08/30 06:57:44;;;;;;;14.55;9.77;;;18.80;12.20;;;;;;4970258;28;20183;-71
2022/08/30 07:00:13;;;;;;;12.27;9.77;;;18.90;1.00;;;;;;4970356;28;20207;-71
2022/08/30 07:02:39;;;;;;;16.08;10.15;;;19.00;1.00;;;;;;4970343;28;20176;-72
2022/08/30 07:05:06;;;;;;;14.35;9.68;;;18.90;1.00;;;;;;4969986;28;20282;-71
2022/08/30 07:07:32;;;;;;;13.95;10.07;;;19.10;1.00;;;;;;4969244;28;20267;-71
2022/08/30 07:10:02;;;;;;;12.07;9.70;;;19.30;1.00;;;;;;4971274;28;20175;-72
2022/08/30 07:12:27;;;;;;;11.02;9.75;;;19.50;1.00;;;;;;4969158;28;20674;-71
2022/08/30 07:14:53;;;;;;;15.60;10.23;;;19.90;1.00;;;;;;4969953;28;20228;-73
2022/08/30 07:20:04;;;;;;;13.10;9.55;;;20.20;1.00;;;;;;4960205;28;20547;-72
2022/08/30 07:22:32;;;;;;;14.93;9.55;;;20.30;1.00;;;;;;4963284;28;20183;-72
2022/08/30 07:24:58;;;;;;;12.27;9.10;;;20.60;1.00;;;;;;4995426;28;20194;-73
2022/08/30 07:27:23;;;;;;;10.90;8.82;;;20.90;1.00;;;;;;4966176;28;20519;-72
2022/08/30 07:29:49;;;;;;;10.95;9.40;;;21.30;1.00;;;;;;4984711;28;20188;-72
2022/08/30 07:32:15;;;;;;;12.27;8.90;;;21.70;1.00;;;;;;4970404;28;20713;-73
2022/08/30 07:34:40;;;;;;;15.02;9.00;;;21.30;1.00;;;;;;4982453;28;20247;-72
2022/08/30 07:37:06;;;;;;;9.63;8.65;;;21.00;1.00;;;;;;4970075;28;20194;-72
2022/08/30 07:39:32;;;;;;;10.43;8.27;;;21.10;1.00;;;;;;4972706;28;20184;-73
2022/08/30 07:41:57;;;;;;;10.90;8.45;;;21.50;1.00;;;;;;4970953;28;20184;-74
2022/08/30 07:44:23;;;;;;;30.85;10.88;;;21.80;99.90;;;;;;4968407;28;20547;-73
2022/08/30 07:46:49;;;;;;;18.33;8.20;;;22.20;1.00;;;;;;4984098;28;20172;-73
2022/08/30 07:49:15;;;;;;;10.00;8.00;;;22.60;1.00;;;;;;4964439;28;20180;-73
2022/08/30 07:51:41;;;;;;;10.65;8.02;;;22.90;1.00;;;;;;4983638;28;20607;-74
2022/08/30 07:54:07;;;;;;;12.00;7.57;;;22.70;1.00;;;;;;4968936;28;20212;-74
2022/08/30 07:56:33;;;;;;;8.77;7.85;;;23.70;99.90;;;;;;4982230;28;20179;-75
2022/08/30 07:58:58;;;;;;;11.60;7.85;;;24.20;99.90;;;;;;4970165;28;20650;-72
2022/08/30 08:01:24;;;;;;;12.27;6.90;;;25.00;1.00;;;;;;4967698;28;20178;-74
2022/08/30 08:03:50;;;;;;;12.68;6.82;;;26.00;71.80;;;;;;4973953;28;20218;-74
2022/08/30 08:06:18;;;;;;;7.50;6.65;;;25.70;1.00;;;;;;4970063;28;20553;-75
2022/08/30 08:08:44;;;;;;;7.60;6.60;;;25.90;1.00;;;;;;4969254;28;20176;-75
2022/08/30 08:11:13;;;;;;;7.47;6.65;;;26.50;1.00;;;;;;4970360;28;20540;-75
2022/08/30 08:13:40;;;;;;;10.63;6.78;;;25.40;1.00;;;;;;4959772;28;20235;-73
2022/08/30 08:16:06;;;;;;;8.88;6.40;;;25.30;1.00;;;;;;4972986;28;20196;-74
2022/08/30 08:18:32;;;;;;;11.13;5.78;;;25.40;1.00;;;;;;4970414;28;20194;-73
2022/08/30 08:20:59;;;;;;;10.05;6.85;;;25.30;1.00;;;;;;4971530;28;20179;-74
2022/08/30 08:23:24;;;;;;;8.40;6.35;;;25.60;1.00;;;;;;4971977;28;20184;-73
2022/08/30 08:25:50;;;;;;;9.25;6.43;;;25.10;1.00;;;;;;4973545;28;20176;-73
2022/08/30 08:28:16;;;;;;;8.43;6.22;;;25.20;1.00;;;;;;4969967;28;20191;-74
2022/08/30 08:30:42;;;;;;;8.60;5.88;;;25.30;1.00;;;;;;4973199;28;20175;-72
2022/08/30 08:33:08;;;;;;;11.13;6.28;;;26.00;1.00;;;;;;4984325;28;20192;-74
2022/08/30 08:35:34;;;;;;;6.47;5.88;;;25.70;1.00;;;;;;4985791;28;20235;-73
2022/08/30 08:38:00;;;;;;;7.38;5.93;;;25.50;1.00;;;;;;4968981;28;20238;-74
2022/08/30 08:40:26;;;;;;;11.18;6.28;;;25.50;1.00;;;;;;4988018;28;20198;-74
2022/08/30 08:43:00;;;;;;;8.52;5.88;;;25.80;1.00;;;;;;4969708;28;20176;-75
2022/08/30 08:45:39;;;;;;;7.00;5.22;;;25.90;1.00;;;;;;4969408;28;20305;-74
2022/08/30 08:48:54;;;;;;;12.50;6.50;;;26.80;1.00;;;;;;4963803;28;20180;-74
2022/08/30 08:54:13;;;;;;;7.38;5.55;;;27.40;99.90;;;;;;4923777;29;20236;-74
2022/08/30 08:56:39;;;;;;;9.65;5.10;;;26.90;99.90;;;;;;4925391;28;20189;-73
2022/08/30 08:59:10;;;;;;;6.50;4.60;;;26.20;99.90;;;;;;4944801;28;20661;-74
2022/08/30 09:01:37;;;;;;;9.52;5.25;;;26.30;99.90;;;;;;4926048;28;20247;-75
2022/08/30 09:04:21;;;;;;;8.15;5.70;;;26.90;99.90;;;;;;4923607;28;20187;-74
2022/08/30 09:07:04;;;;;;;6.38;5.28;;;27.60;99.90;;;;;;4928319;29;20182;-74
2022/08/30 09:09:36;;;;;;;5.82;5.13;;;28.00;99.90;;;;;;4946521;28;20679;-74
2022/08/30 09:12:04;;;;;;;7.85;4.90;;;27.90;99.90;;;;;;4916197;28;20725;-74
2022/08/30 09:14:39;;;;;;;7.95;5.47;;;28.40;99.90;;;;;;4935496;28;20697;-74
2022/08/30 09:17:10;;;;;;;7.25;5.25;;;28.50;99.90;;;;;;4936041;28;20193;-75
2022/08/30 09:19:36;;;;;;;6.72;4.47;;;27.60;99.90;;;;;;4946920;28;20185;-74
2022/08/30 09:22:22;;;;;;;8.07;5.47;;;27.30;99.90;;;;;;4931633;28;20196;-75
2022/08/30 09:24:51;;;;;;;8.82;4.85;;;26.90;99.90;;;;;;4931752;29;20251;-73
2022/08/30 09:27:19;;;;;;;9.05;5.20;;;26.90;99.90;;;;;;4926682;28;20187;-73
2022/08/30 09:30:00;;;;;;;6.53;4.70;;;26.30;99.90;;;;;;4966105;28;20206;-72
2022/08/30 09:32:29;;;;;;;7.60;5.20;;;26.50;99.90;;;;;;4978544;28;20263;-74
2022/08/30 09:34:56;;;;;;;7.20;5.82;;;26.30;99.90;;;;;;4975601;28;20207;-74
2022/08/30 09:37:29;;;;;;;7.13;4.97;;;26.60;99.90;;;;;;4979684;28;20176;-75
2022/08/30 09:39:55;;;;;;;7.28;5.35;;;26.80;99.90;;;;;;4970795;28;20195;-74
2022/08/30 09:42:25;;;;;;;6.38;5.28;;;27.10;99.90;;;;;;4973959;28;20168;-75
2022/08/30 09:44:52;;;;;;;7.35;5.43;;;26.40;99.90;;;;;;4973160;28;20794;-75
2022/08/30 09:47:21;;;;;;;9.35;5.20;;;25.60;99.90;;;;;;4983506;28;20191;-75
2022/08/30 09:49:47;;;;;;;9.52;4.72;;;25.90;1.00;;;;;;4967702;28;20201;-75
2022/08/30 09:52:22;;;;;;;12.38;5.45;;;26.50;99.90;;;;;;4984231;28;20191;-75
2022/08/30 09:54:59;;;;;;;7.07;4.97;;;25.80;99.90;;;;;;4973207;28;20328;-74
2022/08/30 09:57:30;;;;;;;5.85;4.50;;;25.90;99.90;;;;;;4969354;28;20277;-76
2022/08/30 10:00:07;;;;;;;7.90;4.93;;;26.60;99.90;;;;;;5052609;28;20530;-75
2022/08/30 10:02:40;;;;;;;7.10;4.80;;;26.00;99.90;;;;;;4970432;28;20171;-75
2022/08/30 10:05:18;;;;;;;7.53;5.00;;;26.20;99.90;;;;;;4965728;28;20191;-75
2022/08/30 10:08:11;;;;;;;7.97;4.55;;;26.00;99.90;;;;;;4976605;28;20218;-75
2022/08/30 10:10:54;;;;;;;6.55;4.68;;;26.10;99.90;;;;;;4971541;28;20164;-74
2022/08/30 10:14:00;;;;;;;5.05;4.40;;;26.30;99.90;;;;;;4987324;28;20224;-74
2022/08/30 10:16:48;;;;;;;9.88;4.30;;;26.20;99.90;;;;;;5003558;28;20249;-74
2022/08/30 10:19:19;;;;;;;8.55;4.57;;;26.60;99.90;;;;;;4968852;28;20179;-74
2022/08/30 10:22:03;;;;;;;5.90;4.22;;;26.70;99.90;;;;;;4975333;28;20180;-74
2022/08/30 10:24:41;;;;;;;8.88;3.90;;;26.70;99.90;;;;;;4966108;28;20188;-75
2022/08/30 10:27:15;;;;;;;8.05;4.10;;;26.90;99.90;;;;;;4973689;28;20184;-75
2022/08/30 10:29:43;;;;;;;8.70;3.50;;;27.20;99.90;;;;;;4971489;28;20176;-76
2022/08/30 10:32:50;;;;;;;4.82;4.25;;;27.20;99.90;;;;;;4968064;28;20180;-76
2022/08/30 10:35:28;;;;;;;7.43;3.95;;;27.50;99.90;;;;;;4996057;28;20697;-74
2022/08/30 10:38:27;;;;;;;6.10;3.40;;;28.50;99.90;;;;;;4955104;28;20589;-74
2022/08/30 10:41:11;;;;;;;5.70;3.97;;;28.40;99.90;;;;;;4973497;28;20230;-75
2022/08/30 10:43:40;;;;;;;7.38;3.58;;;28.10;99.90;;;;;;4971558;28;20186;-74
2022/08/30 10:46:26;;;;;;;9.77;3.78;;;27.50;99.90;;;;;;4970655;28;20168;-75
2022/08/30 10:48:53;;;;;;;5.93;3.97;;;28.10;99.90;;;;;;4970715;28;20245;-74
2022/08/30 10:51:32;;;;;;;3.53;3.22;;;27.60;99.90;;;;;;4969714;28;20667;-74
2022/08/30 10:54:31;;;;;;;5.32;3.50;;;27.30;99.90;;;;;;4971948;28;20265;-75
2022/08/30 10:56:56;;;;;;;5.75;4.05;;;27.10;99.90;;;;;;4957212;28;20180;-75
2022/08/30 10:59:22;;;;;;;4.75;3.80;;;27.10;99.90;;;;;;4969995;28;20275;-75
2022/08/30 11:02:32;;;;;;;5.78;3.70;;;27.00;99.90;;;;;;4971206;28;20258;-73
2022/08/30 11:05:19;;;;;;;4.28;3.70;;;26.70;99.90;;;;;;4972319;28;20168;-76
2022/08/30 11:07:56;;;;;;;5.68;4.30;;;26.90;99.90;;;;;;4971766;28;20199;-76
2022/08/30 11:10:59;;;;;;;11.13;4.07;;;27.20;99.90;;;;;;4970252;28;20172;-75
2022/08/30 11:13:28;;;;;;;5.45;3.58;;;27.40;99.90;;;;;;4971214;28;20302;-76
2022/08/30 11:16:03;;;;;;;7.57;3.83;;;27.50;99.90;;;;;;4971013;28;20248;-76
2022/08/30 11:18:31;;;;;;;5.20;4.00;;;27.60;99.90;;;;;;4970016;28;20247;-74
2022/08/30 11:21:37;;;;;;;4.93;3.97;;;27.70;99.90;;;;;;4969820;28;20219;-75
2022/08/30 11:24:08;;;;;;;6.22;3.80;;;27.50;99.90;;;;;;5011084;28;20179;-75
2022/08/30 11:26:45;;;;;;;5.90;3.92;;;28.10;99.90;;;;;;5010814;28;20261;-74
2022/08/30 11:29:37;;;;;;;6.07;3.90;;;27.80;99.90;;;;;;5011058;28;20193;-74
2022/08/30 11:32:12;;;;;;;3.70;3.40;;;27.60;99.90;;;;;;5010147;28;20175;-75
2022/08/30 11:34:44;;;;;;;5.53;4.13;;;27.70;99.90;;;;;;5011093;28;20217;-74
2022/08/30 11:37:40;;;;;;;6.93;4.20;;;27.30;99.90;;;;;;5010177;28;20197;-74
2022/08/30 11:40:07;;;;;;;4.65;3.72;;;27.40;99.90;;;;;;5010279;28;20257;-74
2022/08/30 11:42:40;;;;;;;4.13;3.83;;;27.50;99.90;;;;;;5010467;28;20178;-74
2022/08/30 11:45:21;;;;;;;6.65;3.58;;;27.00;99.90;;;;;;5010833;28;20174;-74
2022/08/30 11:47:51;;;;;;;8.02;3.88;;;26.70;99.90;;;;;;5010102;28;20236;-74
2022/08/30 11:50:35;;;;;;;4.63;4.20;;;26.60;99.90;;;;;;5010827;28;20254;-74
2022/08/30 11:53:30;;;;;;;4.50;4.05;;;26.60;99.90;;;;;;5010726;28;20182;-75
2022/08/30 11:56:22;;;;;;;5.68;3.83;;;26.00;99.90;;;;;;4952452;28;20204;-76
2022/08/30 11:58:51;;;;;;;5.88;3.92;;;26.50;99.90;;;;;;4982651;28;20180;-75
2022/08/30 12:01:19;;;;;;;9.35;3.55;;;26.50;99.90;;;;;;4951404;28;20204;-74
2022/08/30 12:03:58;;;;;;;5.32;3.42;;;26.50;99.90;;;;;;4952125;28;20252;-74
2022/08/30 12:06:38;;;;;;;6.00;3.60;;;26.60;99.90;;;;;;4951898;28;20168;-75
2022/08/30 12:09:06;;;;;;;7.40;3.92;;;26.50;99.90;;;;;;4951225;28;20177;-73
2022/08/30 12:11:34;;;;;;;5.55;3.40;;;26.80;99.90;;;;;;4951327;28;20182;-74
2022/08/30 12:14:02;;;;;;;9.57;3.75;;;26.70;99.90;;;;;;4953551;28;20274;-74
2022/08/30 12:19:31;;;;;;;4.80;3.85;;;26.50;99.90;;;;;;4951352;28;20184;-75
2022/08/30 12:22:00;;;;;;;6.93;3.85;;;26.50;99.90;;;;;;4950631;28;20204;-74
2022/08/30 12:24:38;;;;;;;7.07;3.80;;;26.50;99.90;;;;;;4950849;28;20172;-73
2022/08/30 12:27:39;;;;;;;5.70;3.97;;;26.60;99.90;;;;;;4950627;29;20644;-72
2022/08/30 12:30:08;;;;;;;9.98;3.65;;;25.80;99.90;;;;;;5022201;28;20225;-74
2022/08/30 12:32:46;;;;;;;5.50;3.95;;;26.30;99.90;;;;;;5031231;28;20181;-75
2022/08/30 12:35:22;;;;;;;5.45;3.50;;;26.90;99.90;;;;;;5028131;28;20784;-75
2022/08/30 12:37:56;;;;;;;7.63;4.20;;;27.10;99.90;;;;;;5028405;28;20186;-75
2022/08/30 12:40:24;;;;;;;5.22;3.67;;;26.70;99.90;;;;;;5032291;28;20177;-75
2022/08/30 12:42:57;;;;;;;7.93;3.70;;;26.70;99.90;;;;;;5033017;28;20174;-75
2022/08/30 12:45:30;;;;;;;6.22;4.03;;;26.70;99.90;;;;;;5033724;28;20289;-75
2022/08/30 12:48:04;;;;;;;4.25;3.72;;;27.00;99.90;;;;;;5031715;28;20509;-74
2022/08/30 12:51:00;;;;;;;3.42;3.13;;;27.00;99.90;;;;;;5021617;28;20186;-75
2022/08/30 12:53:30;;;;;;;4.45;3.65;;;26.80;99.90;;;;;;5027740;28;20261;-74
2022/08/30 12:56:06;;;;;;;9.38;3.78;;;26.90;99.90;;;;;;5032761;28;20182;-74
2022/08/30 12:58:44;;;;;;;6.70;3.60;;;26.90;99.90;;;;;;5023567;28;20205;-74
2022/08/30 13:01:29;;;;;;;8.50;4.88;;;26.70;99.90;;;;;;5028129;28;20201;-74
2022/08/30 13:04:01;;;;;;;7.03;3.70;;;26.50;99.90;;;;;;5005913;28;20191;-74
2022/08/30 13:06:50;;;;;;;7.57;3.78;;;26.60;99.90;;;;;;4972530;28;20176;-73
2022/08/30 13:09:33;;;;;;;7.43;3.90;;;26.60;99.90;;;;;;4976951;28;20647;-75